sensor_id;sensor_type;location;lat;lon;timestamp;P1;durP1;ratioP1;P2;durP2;ratioP2
2912;SDS011;1466;48.778;9.166;2024-03-22T00:01:47;40.67;;;17.05;;
2912;SDS011;1466;48.778;9.166;2024-03-22T00:04:13;32.33;;;14.67;;
2912;SDS011;1466;48.778;9.166;2024-03-22T00:06:43;30.77;;;16.00;;
2912;SDS011;1466;48.778;9.166;2024-03-22T00:09:12;30.17;;;13.90;;
2912;SDS011;1466;48.778;9.166;2024-03-22T00:11:41;27.10;;;13.70;;
2912;SDS011;1466;48.778;9.166;2024-03-22T00:14:08;27.67;;;14.23;;
2912;SDS011;1466;48.778;9.166;2024-03-22T00:16:34;32.05;;;15.07;;
2912;SDS011;1466;48.778;9.166;2024-03-22T00:19:01;24.33;;;14.55;;
2912;SDS011;1466;48.778;9.166;2024-03-22T00:21:27;25.13;;;14.05;;
2912;SDS011;1466;48.778;9.166;2024-03-22T00:23:53;27.58;;;13.38;;
2912;SDS011;1466;48.778;9.166;2024-03-22T00:26:19;25.10;;;14.37;;
2912;SDS011;1466;48.778;9.166;2024-03-22T00:28:44;23.60;;;11.43;;
2912;SDS011;1466;48.778;9.166;2024-03-22T00:31:10;21.60;;;12.63;;
2912;SDS011;1466;48.778;9.166;2024-03-22T00:33:35;24.40;;;13.77;;
2912;SDS011;1466;48.778;9.166;2024-03-22T00:36:01;27.40;;;13.10;;
2912;SDS011;1466;48.778;9.166;2024-03-22T00:38:27;26.37;;;12.60;;
2912;SDS011;1466;48.778;9.166;2024-03-22T00:40:52;31.00;;;13.27;;
2912;SDS011;1466;48.778;9.166;2024-03-22T00:43:19;30.47;;;13.33;;
2912;SDS011;1466;48.778;9.166;2024-03-22T00:45:45;32.95;;;13.85;;
2912;SDS011;1466;48.778;9.166;2024-03-22T00:48:11;23.90;;;12.10;;
2912;SDS011;1466;48.778;9.166;2024-03-22T00:50:36;25.13;;;12.87;;
2912;SDS011;1466;48.778;9.166;2024-03-22T00:53:02;27.20;;;12.40;;
2912;SDS011;1466;48.778;9.166;2024-03-22T00:55:28;27.77;;;12.80;;
2912;SDS011;1466;48.778;9.166;2024-03-22T00:57:54;23.50;;;12.10;;
2912;SDS011;1466;48.778;9.166;2024-03-22T01:00:20;25.60;;;12.40;;
2912;SDS011;1466;48.778;9.166;2024-03-22T01:02:45;21.00;;;11.60;;
2912;SDS011;1466;48.778;9.166;2024-03-22T01:05:11;22.70;;;11.30;;
2912;SDS011;1466;48.778;9.166;2024-03-22T01:07:37;29.83;;;12.30;;
2912;SDS011;1466;48.778;9.166;2024-03-22T01:10:03;25.43;;;12.13;;
2912;SDS011;1466;48.778;9.166;2024-03-22T01:12:29;24.15;;;12.60;;
2912;SDS011;1466;48.778;9.166;2024-03-22T01:14:55;23.67;;;12.07;;
2912;SDS011;1466;48.778;9.166;2024-03-22T01:17:20;22.53;;;12.03;;
2912;SDS011;1466;48.778;9.166;2024-03-22T01:19:46;28.07;;;12.40;;
2912;SDS011;1466;48.778;9.166;2024-03-22T01:22:11;24.63;;;13.47;;
2912;SDS011;1466;48.778;9.166;2024-03-22T01:24:37;23.03;;;12.13;;
2912;SDS011;1466;48.778;9.166;2024-03-22T01:27:03;18.47;;;11.40;;
2912;SDS011;1466;48.778;9.166;2024-03-22T01:29:29;26.65;;;12.55;;
2912;SDS011;1466;48.778;9.166;2024-03-22T01:31:56;25.85;;;13.23;;
2912;SDS011;1466;48.778;9.166;2024-03-22T01:34:25;19.52;;;13.20;;
2912;SDS011;1466;48.778;9.166;2024-03-22T01:36:51;25.60;;;12.30;;
2912;SDS011;1466;48.778;9.166;2024-03-22T01:39:16;24.60;;;12.02;;
2912;SDS011;1466;48.778;9.166;2024-03-22T01:41:46;26.90;;;14.10;;
2912;SDS011;1466;48.778;9.166;2024-03-22T01:44:12;21.20;;;12.88;;
2912;SDS011;1466;48.778;9.166;2024-03-22T01:46:39;23.25;;;13.07;;
2912;SDS011;1466;48.778;9.166;2024-03-22T01:49:05;27.77;;;12.80;;
2912;SDS011;1466;48.778;9.166;2024-03-22T01:51:31;27.13;;;13.07;;
2912;SDS011;1466;48.778;9.166;2024-03-22T01:53:57;27.85;;;13.43;;
2912;SDS011;1466;48.778;9.166;2024-03-22T01:56:26;32.50;;;14.60;;
2912;SDS011;1466;48.778;9.166;2024-03-22T01:58:52;25.30;;;13.67;;
2912;SDS011;1466;48.778;9.166;2024-03-22T02:01:19;19.63;;;11.63;;
2912;SDS011;1466;48.778;9.166;2024-03-22T02:03:44;28.00;;;13.63;;
2912;SDS011;1466;48.778;9.166;2024-03-22T02:06:10;22.23;;;12.30;;
2912;SDS011;1466;48.778;9.166;2024-03-22T02:08:35;23.37;;;12.50;;
2912;SDS011;1466;48.778;9.166;2024-03-22T02:11:01;24.90;;;12.63;;
2912;SDS011;1466;48.778;9.166;2024-03-22T02:13:27;27.20;;;13.63;;
2912;SDS011;1466;48.778;9.166;2024-03-22T02:15:52;24.03;;;12.70;;
2912;SDS011;1466;48.778;9.166;2024-03-22T02:18:18;25.53;;;12.40;;
2912;SDS011;1466;48.778;9.166;2024-03-22T02:20:43;19.80;;;11.70;;
2912;SDS011;1466;48.778;9.166;2024-03-22T02:23:09;26.40;;;12.70;;
2912;SDS011;1466;48.778;9.166;2024-03-22T02:25:34;27.57;;;11.80;;
2912;SDS011;1466;48.778;9.166;2024-03-22T02:28:00;32.63;;;12.80;;
2912;SDS011;1466;48.778;9.166;2024-03-22T02:30:25;20.93;;;12.17;;
2912;SDS011;1466;48.778;9.166;2024-03-22T02:32:51;25.27;;;13.07;;
2912;SDS011;1466;48.778;9.166;2024-03-22T02:35:16;25.73;;;12.00;;
2912;SDS011;1466;48.778;9.166;2024-03-22T02:37:42;24.03;;;12.00;;
2912;SDS011;1466;48.778;9.166;2024-03-22T02:40:08;28.53;;;13.00;;
2912;SDS011;1466;48.778;9.166;2024-03-22T02:42:34;23.60;;;11.75;;
2912;SDS011;1466;48.778;9.166;2024-03-22T02:44:59;28.40;;;11.83;;
2912;SDS011;1466;48.778;9.166;2024-03-22T02:47:25;23.90;;;11.27;;
2912;SDS011;1466;48.778;9.166;2024-03-22T02:49:50;27.13;;;12.10;;
2912;SDS011;1466;48.778;9.166;2024-03-22T02:52:16;25.80;;;12.20;;
2912;SDS011;1466;48.778;9.166;2024-03-22T02:54:41;26.17;;;13.43;;
2912;SDS011;1466;48.778;9.166;2024-03-22T02:57:07;22.47;;;11.90;;
2912;SDS011;1466;48.778;9.166;2024-03-22T02:59:32;27.90;;;11.67;;
2912;SDS011;1466;48.778;9.166;2024-03-22T03:01:58;21.37;;;10.90;;
2912;SDS011;1466;48.778;9.166;2024-03-22T03:04:23;21.67;;;11.43;;
2912;SDS011;1466;48.778;9.166;2024-03-22T03:06:49;20.83;;;11.50;;
2912;SDS011;1466;48.778;9.166;2024-03-22T03:09:15;21.00;;;12.03;;
2912;SDS011;1466;48.778;9.166;2024-03-22T03:11:40;21.97;;;11.60;;
2912;SDS011;1466;48.778;9.166;2024-03-22T03:14:06;22.67;;;12.47;;
2912;SDS011;1466;48.778;9.166;2024-03-22T03:16:32;24.93;;;13.47;;
2912;SDS011;1466;48.778;9.166;2024-03-22T03:18:57;21.07;;;11.63;;
2912;SDS011;1466;48.778;9.166;2024-03-22T03:21:23;27.50;;;13.00;;
2912;SDS011;1466;48.778;9.166;2024-03-22T03:23:49;34.27;;;14.07;;
2912;SDS011;1466;48.778;9.166;2024-03-22T03:26:14;21.60;;;12.60;;
2912;SDS011;1466;48.778;9.166;2024-03-22T03:28:40;25.63;;;12.93;;
2912;SDS011;1466;48.778;9.166;2024-03-22T03:31:08;25.17;;;12.10;;
2912;SDS011;1466;48.778;9.166;2024-03-22T03:33:34;25.33;;;12.73;;
2912;SDS011;1466;48.778;9.166;2024-03-22T03:35:59;30.07;;;13.83;;
2912;SDS011;1466;48.778;9.166;2024-03-22T03:38:25;40.17;;;14.57;;
2912;SDS011;1466;48.778;9.166;2024-03-22T03:40:50;29.90;;;12.47;;
2912;SDS011;1466;48.778;9.166;2024-03-22T03:43:16;26.43;;;12.90;;
2912;SDS011;1466;48.778;9.166;2024-03-22T03:45:41;23.47;;;12.27;;
2912;SDS011;1466;48.778;9.166;2024-03-22T03:48:07;32.40;;;13.90;;
2912;SDS011;1466;48.778;9.166;2024-03-22T03:50:32;22.37;;;13.13;;
2912;SDS011;1466;48.778;9.166;2024-03-22T03:52:58;23.83;;;12.50;;
2912;SDS011;1466;48.778;9.166;2024-03-22T03:55:24;28.07;;;12.43;;
2912;SDS011;1466;48.778;9.166;2024-03-22T03:57:50;29.30;;;14.80;;
2912;SDS011;1466;48.778;9.166;2024-03-22T04:00:16;26.50;;;13.40;;
2912;SDS011;1466;48.778;9.166;2024-03-22T04:02:42;27.90;;;12.75;;
2912;SDS011;1466;48.778;9.166;2024-03-22T04:05:07;24.60;;;13.27;;
2912;SDS011;1466;48.778;9.166;2024-03-22T04:07:33;31.10;;;14.23;;
2912;SDS011;1466;48.778;9.166;2024-03-22T04:09:59;23.97;;;12.17;;
2912;SDS011;1466;48.778;9.166;2024-03-22T04:12:25;33.85;;;13.25;;
2912;SDS011;1466;48.778;9.166;2024-03-22T04:14:51;23.25;;;12.70;;
2912;SDS011;1466;48.778;9.166;2024-03-22T04:17:17;30.97;;;13.70;;
2912;SDS011;1466;48.778;9.166;2024-03-22T04:19:43;24.43;;;13.27;;
2912;SDS011;1466;48.778;9.166;2024-03-22T04:22:09;30.00;;;12.77;;
2912;SDS011;1466;48.778;9.166;2024-03-22T04:24:34;27.30;;;14.80;;
2912;SDS011;1466;48.778;9.166;2024-03-22T04:27:00;25.60;;;13.07;;
2912;SDS011;1466;48.778;9.166;2024-03-22T04:29:25;25.33;;;13.07;;
2912;SDS011;1466;48.778;9.166;2024-03-22T04:31:51;22.20;;;11.13;;
2912;SDS011;1466;48.778;9.166;2024-03-22T04:34:16;27.77;;;13.07;;
2912;SDS011;1466;48.778;9.166;2024-03-22T04:36:42;25.70;;;12.67;;
2912;SDS011;1466;48.778;9.166;2024-03-22T04:39:08;26.42;;;12.95;;
2912;SDS011;1466;48.778;9.166;2024-03-22T04:41:34;24.67;;;12.95;;
2912;SDS011;1466;48.778;9.166;2024-03-22T04:44:00;20.73;;;11.47;;
2912;SDS011;1466;48.778;9.166;2024-03-22T04:46:26;30.13;;;12.70;;
2912;SDS011;1466;48.778;9.166;2024-03-22T04:48:51;21.37;;;11.27;;
2912;SDS011;1466;48.778;9.166;2024-03-22T04:51:17;21.80;;;11.37;;
2912;SDS011;1466;48.778;9.166;2024-03-22T04:53:43;21.03;;;10.57;;
2912;SDS011;1466;48.778;9.166;2024-03-22T04:56:09;20.00;;;11.50;;
2912;SDS011;1466;48.778;9.166;2024-03-22T04:58:34;20.87;;;11.17;;
2912;SDS011;1466;48.778;9.166;2024-03-22T05:01:00;38.80;;;13.67;;
2912;SDS011;1466;48.778;9.166;2024-03-22T05:03:26;21.45;;;11.30;;
2912;SDS011;1466;48.778;9.166;2024-03-22T05:05:51;25.50;;;11.40;;
2912;SDS011;1466;48.778;9.166;2024-03-22T05:08:17;23.10;;;11.00;;
2912;SDS011;1466;48.778;9.166;2024-03-22T05:10:43;29.63;;;11.47;;
2912;SDS011;1466;48.778;9.166;2024-03-22T05:13:08;19.43;;;10.40;;
2912;SDS011;1466;48.778;9.166;2024-03-22T05:15:34;23.77;;;10.77;;
2912;SDS011;1466;48.778;9.166;2024-03-22T05:17:59;26.97;;;12.30;;
2912;SDS011;1466;48.778;9.166;2024-03-22T05:20:25;18.93;;;10.20;;
2912;SDS011;1466;48.778;9.166;2024-03-22T05:22:51;19.73;;;10.47;;
2912;SDS011;1466;48.778;9.166;2024-03-22T05:25:17;26.20;;;11.50;;
2912;SDS011;1466;48.778;9.166;2024-03-22T05:27:43;22.30;;;11.40;;
2912;SDS011;1466;48.778;9.166;2024-03-22T05:30:09;25.02;;;10.55;;
2912;SDS011;1466;48.778;9.166;2024-03-22T05:32:36;29.60;;;11.85;;
2912;SDS011;1466;48.778;9.166;2024-03-22T05:35:02;30.70;;;11.18;;
2912;SDS011;1466;48.778;9.166;2024-03-22T05:37:28;29.30;;;11.30;;
2912;SDS011;1466;48.778;9.166;2024-03-22T05:39:54;24.47;;;10.70;;
2912;SDS011;1466;48.778;9.166;2024-03-22T05:42:20;22.23;;;11.07;;
2912;SDS011;1466;48.778;9.166;2024-03-22T05:44:45;21.83;;;11.27;;
2912;SDS011;1466;48.778;9.166;2024-03-22T05:47:11;24.53;;;10.80;;
2912;SDS011;1466;48.778;9.166;2024-03-22T05:49:36;33.60;;;13.30;;
2912;SDS011;1466;48.778;9.166;2024-03-22T05:52:02;29.50;;;12.47;;
2912;SDS011;1466;48.778;9.166;2024-03-22T05:54:28;29.10;;;11.83;;
2912;SDS011;1466;48.778;9.166;2024-03-22T05:56:53;23.07;;;10.57;;
2912;SDS011;1466;48.778;9.166;2024-03-22T05:59:20;30.75;;;12.48;;
2912;SDS011;1466;48.778;9.166;2024-03-22T06:01:45;30.83;;;13.00;;
2912;SDS011;1466;48.778;9.166;2024-03-22T06:04:11;43.97;;;14.83;;
2912;SDS011;1466;48.778;9.166;2024-03-22T06:06:36;28.67;;;12.40;;
2912;SDS011;1466;48.778;9.166;2024-03-22T06:09:03;33.45;;;13.10;;
2912;SDS011;1466;48.778;9.166;2024-03-22T06:11:31;27.10;;;12.83;;
2912;SDS011;1466;48.778;9.166;2024-03-22T06:13:57;29.02;;;13.25;;
2912;SDS011;1466;48.778;9.166;2024-03-22T06:16:22;25.67;;;12.47;;
2912;SDS011;1466;48.778;9.166;2024-03-22T06:18:48;21.50;;;12.67;;
2912;SDS011;1466;48.778;9.166;2024-03-22T06:21:14;30.23;;;13.40;;
2912;SDS011;1466;48.778;9.166;2024-03-22T06:23:40;30.33;;;13.93;;
2912;SDS011;1466;48.778;9.166;2024-03-22T06:26:06;27.25;;;13.38;;
2912;SDS011;1466;48.778;9.166;2024-03-22T06:28:32;38.63;;;14.97;;
2912;SDS011;1466;48.778;9.166;2024-03-22T06:30:57;31.83;;;14.60;;
2912;SDS011;1466;48.778;9.166;2024-03-22T06:33:23;28.73;;;14.00;;
2912;SDS011;1466;48.778;9.166;2024-03-22T06:35:49;26.70;;;13.10;;
2912;SDS011;1466;48.778;9.166;2024-03-22T06:38:14;48.37;;;16.77;;
2912;SDS011;1466;48.778;9.166;2024-03-22T06:40:40;33.30;;;13.53;;
2912;SDS011;1466;48.778;9.166;2024-03-22T06:43:06;42.37;;;15.07;;
2912;SDS011;1466;48.778;9.166;2024-03-22T06:45:31;38.63;;;14.40;;
2912;SDS011;1466;48.778;9.166;2024-03-22T06:47:57;31.77;;;14.50;;
2912;SDS011;1466;48.778;9.166;2024-03-22T06:50:23;22.10;;;13.20;;
2912;SDS011;1466;48.778;9.166;2024-03-22T06:52:51;34.78;;;15.38;;
2912;SDS011;1466;48.778;9.166;2024-03-22T06:55:18;34.97;;;14.43;;
2912;SDS011;1466;48.778;9.166;2024-03-22T06:57:49;27.15;;;14.88;;
2912;SDS011;1466;48.778;9.166;2024-03-22T07:00:17;32.25;;;14.98;;
2912;SDS011;1466;48.778;9.166;2024-03-22T07:02:43;31.87;;;14.10;;
2912;SDS011;1466;48.778;9.166;2024-03-22T07:05:09;25.97;;;13.63;;
2912;SDS011;1466;48.778;9.166;2024-03-22T07:07:36;40.53;;;16.80;;
2912;SDS011;1466;48.778;9.166;2024-03-22T07:10:02;35.05;;;15.27;;
2912;SDS011;1466;48.778;9.166;2024-03-22T07:12:30;37.15;;;14.90;;
2912;SDS011;1466;48.778;9.166;2024-03-22T07:14:57;26.15;;;12.30;;
2912;SDS011;1466;48.778;9.166;2024-03-22T07:17:24;42.17;;;14.98;;
2912;SDS011;1466;48.778;9.166;2024-03-22T07:19:50;25.70;;;12.17;;
2912;SDS011;1466;48.778;9.166;2024-03-22T07:22:16;35.22;;;15.02;;
2912;SDS011;1466;48.778;9.166;2024-03-22T07:24:42;29.02;;;13.55;;
2912;SDS011;1466;48.778;9.166;2024-03-22T07:27:08;27.63;;;13.50;;
2912;SDS011;1466;48.778;9.166;2024-03-22T07:29:33;38.97;;;15.70;;
2912;SDS011;1466;48.778;9.166;2024-03-22T07:31:59;38.10;;;14.10;;
2912;SDS011;1466;48.778;9.166;2024-03-22T07:34:24;35.17;;;14.53;;
2912;SDS011;1466;48.778;9.166;2024-03-22T07:36:50;31.90;;;12.27;;
2912;SDS011;1466;48.778;9.166;2024-03-22T07:39:16;23.60;;;13.77;;
2912;SDS011;1466;48.778;9.166;2024-03-22T07:41:41;39.77;;;15.50;;
2912;SDS011;1466;48.778;9.166;2024-03-22T07:44:07;27.67;;;13.30;;
2912;SDS011;1466;48.778;9.166;2024-03-22T07:46:32;36.57;;;14.73;;
2912;SDS011;1466;48.778;9.166;2024-03-22T07:48:58;41.07;;;15.17;;
2912;SDS011;1466;48.778;9.166;2024-03-22T07:51:24;39.97;;;14.95;;
2912;SDS011;1466;48.778;9.166;2024-03-22T07:53:50;56.97;;;16.57;;
2912;SDS011;1466;48.778;9.166;2024-03-22T07:56:17;28.73;;;13.00;;
2912;SDS011;1466;48.778;9.166;2024-03-22T07:58:42;38.73;;;15.37;;
2912;SDS011;1466;48.778;9.166;2024-03-22T08:01:08;33.20;;;14.97;;
2912;SDS011;1466;48.778;9.166;2024-03-22T08:03:34;29.90;;;14.70;;
2912;SDS011;1466;48.778;9.166;2024-03-22T08:05:59;52.50;;;17.27;;
2912;SDS011;1466;48.778;9.166;2024-03-22T08:08:25;36.63;;;15.07;;
2912;SDS011;1466;48.778;9.166;2024-03-22T08:10:50;25.67;;;12.70;;
2912;SDS011;1466;48.778;9.166;2024-03-22T08:13:16;32.57;;;14.60;;
2912;SDS011;1466;48.778;9.166;2024-03-22T08:15:42;33.63;;;13.70;;
2912;SDS011;1466;48.778;9.166;2024-03-22T08:18:10;33.05;;;13.35;;
2912;SDS011;1466;48.778;9.166;2024-03-22T08:20:36;29.03;;;12.70;;
2912;SDS011;1466;48.778;9.166;2024-03-22T08:23:03;33.22;;;13.85;;
2912;SDS011;1466;48.778;9.166;2024-03-22T08:25:29;26.37;;;12.63;;
2912;SDS011;1466;48.778;9.166;2024-03-22T08:27:55;24.80;;;12.80;;
2912;SDS011;1466;48.778;9.166;2024-03-22T08:30:21;31.23;;;12.93;;
2912;SDS011;1466;48.778;9.166;2024-03-22T08:32:47;32.25;;;13.52;;
2912;SDS011;1466;48.778;9.166;2024-03-22T08:35:13;37.43;;;13.80;;
2912;SDS011;1466;48.778;9.166;2024-03-22T08:37:39;25.00;;;11.60;;
2912;SDS011;1466;48.778;9.166;2024-03-22T08:40:04;36.03;;;13.20;;
2912;SDS011;1466;48.778;9.166;2024-03-22T08:42:31;29.10;;;10.07;;
2912;SDS011;1466;48.778;9.166;2024-03-22T08:44:57;24.27;;;10.30;;
2912;SDS011;1466;48.778;9.166;2024-03-22T08:47:23;33.03;;;11.23;;
2912;SDS011;1466;48.778;9.166;2024-03-22T08:49:51;27.83;;;10.70;;
2912;SDS011;1466;48.778;9.166;2024-03-22T08:52:16;21.48;;;9.57;;
2912;SDS011;1466;48.778;9.166;2024-03-22T08:54:42;27.63;;;11.20;;
2912;SDS011;1466;48.778;9.166;2024-03-22T08:57:10;33.08;;;9.77;;
2912;SDS011;1466;48.778;9.166;2024-03-22T08:59:35;21.93;;;9.10;;
2912;SDS011;1466;48.778;9.166;2024-03-22T09:02:03;24.35;;;10.48;;
2912;SDS011;1466;48.778;9.166;2024-03-22T09:04:28;23.77;;;9.50;;
2912;SDS011;1466;48.778;9.166;2024-03-22T09:06:54;21.93;;;9.40;;
2912;SDS011;1466;48.778;9.166;2024-03-22T09:09:19;30.17;;;10.63;;
2912;SDS011;1466;48.778;9.166;2024-03-22T09:11:45;20.87;;;9.27;;
2912;SDS011;1466;48.778;9.166;2024-03-22T09:14:11;28.47;;;10.90;;
2912;SDS011;1466;48.778;9.166;2024-03-22T09:16:36;24.50;;;9.90;;
2912;SDS011;1466;48.778;9.166;2024-03-22T09:19:02;23.03;;;9.50;;
2912;SDS011;1466;48.778;9.166;2024-03-22T09:21:27;21.43;;;9.83;;
2912;SDS011;1466;48.778;9.166;2024-03-22T09:23:53;20.27;;;9.57;;
2912;SDS011;1466;48.778;9.166;2024-03-22T09:26:19;24.10;;;10.00;;
2912;SDS011;1466;48.778;9.166;2024-03-22T09:28:48;21.27;;;9.43;;
2912;SDS011;1466;48.778;9.166;2024-03-22T09:31:15;20.75;;;8.50;;
2912;SDS011;1466;48.778;9.166;2024-03-22T09:33:41;22.07;;;9.20;;
2912;SDS011;1466;48.778;9.166;2024-03-22T09:36:07;24.23;;;9.45;;
2912;SDS011;1466;48.778;9.166;2024-03-22T09:38:33;22.37;;;9.37;;
2912;SDS011;1466;48.778;9.166;2024-03-22T09:40:59;22.10;;;8.93;;
2912;SDS011;1466;48.778;9.166;2024-03-22T09:43:24;29.80;;;9.43;;
2912;SDS011;1466;48.778;9.166;2024-03-22T09:45:52;25.30;;;8.75;;
2912;SDS011;1466;48.778;9.166;2024-03-22T09:48:22;22.40;;;8.98;;
2912;SDS011;1466;48.778;9.166;2024-03-22T09:50:49;21.10;;;8.77;;
2912;SDS011;1466;48.778;9.166;2024-03-22T09:53:17;25.73;;;8.93;;
2912;SDS011;1466;48.778;9.166;2024-03-22T09:55:44;20.58;;;8.88;;
2912;SDS011;1466;48.778;9.166;2024-03-22T09:58:11;22.90;;;9.50;;
2912;SDS011;1466;48.778;9.166;2024-03-22T10:00:37;25.57;;;9.33;;
2912;SDS011;1466;48.778;9.166;2024-03-22T10:03:03;22.57;;;9.03;;
2912;SDS011;1466;48.778;9.166;2024-03-22T10:05:30;28.03;;;9.57;;
2912;SDS011;1466;48.778;9.166;2024-03-22T10:07:56;18.13;;;8.53;;
2912;SDS011;1466;48.778;9.166;2024-03-22T10:10:22;20.57;;;9.30;;
2912;SDS011;1466;48.778;9.166;2024-03-22T10:12:48;19.50;;;8.73;;
2912;SDS011;1466;48.778;9.166;2024-03-22T10:15:14;20.07;;;8.93;;
2912;SDS011;1466;48.778;9.166;2024-03-22T10:17:40;26.53;;;9.70;;
2912;SDS011;1466;48.778;9.166;2024-03-22T10:20:06;24.30;;;9.23;;
2912;SDS011;1466;48.778;9.166;2024-03-22T10:22:41;21.33;;;8.63;;
2912;SDS011;1466;48.778;9.166;2024-03-22T10:25:13;18.63;;;8.88;;
2912;SDS011;1466;48.778;9.166;2024-03-22T10:27:39;22.83;;;9.03;;
2912;SDS011;1466;48.778;9.166;2024-03-22T10:30:09;20.77;;;8.83;;
2912;SDS011;1466;48.778;9.166;2024-03-22T10:32:36;19.93;;;8.57;;
2912;SDS011;1466;48.778;9.166;2024-03-22T10:35:04;32.37;;;10.17;;
2912;SDS011;1466;48.778;9.166;2024-03-22T10:37:32;19.53;;;7.40;;
2912;SDS011;1466;48.778;9.166;2024-03-22T10:39:59;27.33;;;10.30;;
2912;SDS011;1466;48.778;9.166;2024-03-22T10:42:32;31.20;;;10.37;;
2912;SDS011;1466;48.778;9.166;2024-03-22T10:45:01;24.27;;;8.90;;
2912;SDS011;1466;48.778;9.166;2024-03-22T10:47:29;25.80;;;9.37;;
2912;SDS011;1466;48.778;9.166;2024-03-22T10:52:38;22.23;;;8.57;;
2912;SDS011;1466;48.778;9.166;2024-03-22T10:55:19;17.23;;;7.67;;
2912;SDS011;1466;48.778;9.166;2024-03-22T10:57:53;17.37;;;7.70;;
2912;SDS011;1466;48.778;9.166;2024-03-22T11:00:26;19.80;;;8.60;;
2912;SDS011;1466;48.778;9.166;2024-03-22T11:02:53;24.13;;;9.60;;
2912;SDS011;1466;48.778;9.166;2024-03-22T11:05:19;16.83;;;8.37;;
2912;SDS011;1466;48.778;9.166;2024-03-22T11:07:45;19.10;;;8.20;;
2912;SDS011;1466;48.778;9.166;2024-03-22T11:10:11;19.60;;;8.70;;
2912;SDS011;1466;48.778;9.166;2024-03-22T11:12:37;22.20;;;8.93;;
2912;SDS011;1466;48.778;9.166;2024-03-22T11:15:06;20.70;;;8.83;;
2912;SDS011;1466;48.778;9.166;2024-03-22T11:17:37;23.67;;;9.67;;
2912;SDS011;1466;48.778;9.166;2024-03-22T11:20:03;23.90;;;9.00;;
2912;SDS011;1466;48.778;9.166;2024-03-22T11:22:28;19.87;;;9.43;;
2912;SDS011;1466;48.778;9.166;2024-03-22T11:24:54;27.67;;;9.87;;
2912;SDS011;1466;48.778;9.166;2024-03-22T11:27:20;22.90;;;9.43;;
2912;SDS011;1466;48.778;9.166;2024-03-22T11:29:45;23.00;;;8.83;;
2912;SDS011;1466;48.778;9.166;2024-03-22T11:32:11;20.40;;;8.90;;
2912;SDS011;1466;48.778;9.166;2024-03-22T11:34:37;20.37;;;8.77;;
2912;SDS011;1466;48.778;9.166;2024-03-22T11:37:05;22.27;;;10.23;;
2912;SDS011;1466;48.778;9.166;2024-03-22T11:39:32;21.23;;;9.20;;
2912;SDS011;1466;48.778;9.166;2024-03-22T11:41:59;26.87;;;8.87;;
2912;SDS011;1466;48.778;9.166;2024-03-22T11:44:26;26.67;;;9.80;;
2912;SDS011;1466;48.778;9.166;2024-03-22T11:46:52;21.37;;;10.30;;
2912;SDS011;1466;48.778;9.166;2024-03-22T11:49:18;15.83;;;8.30;;
2912;SDS011;1466;48.778;9.166;2024-03-22T11:51:44;18.87;;;8.77;;
2912;SDS011;1466;48.778;9.166;2024-03-22T11:54:10;17.53;;;8.60;;
2912;SDS011;1466;48.778;9.166;2024-03-22T11:56:36;14.17;;;8.83;;
2912;SDS011;1466;48.778;9.166;2024-03-22T11:59:02;39.53;;;12.10;;
2912;SDS011;1466;48.778;9.166;2024-03-22T12:01:28;25.00;;;9.73;;
2912;SDS011;1466;48.778;9.166;2024-03-22T12:03:55;20.83;;;9.47;;
2912;SDS011;1466;48.778;9.166;2024-03-22T12:06:21;15.70;;;7.70;;
2912;SDS011;1466;48.778;9.166;2024-03-22T12:08:47;12.93;;;8.00;;
2912;SDS011;1466;48.778;9.166;2024-03-22T12:11:13;24.20;;;8.87;;
2912;SDS011;1466;48.778;9.166;2024-03-22T12:13:39;12.93;;;6.70;;
2912;SDS011;1466;48.778;9.166;2024-03-22T12:16:05;23.07;;;8.27;;
2912;SDS011;1466;48.778;9.166;2024-03-22T12:18:31;29.07;;;10.10;;
2912;SDS011;1466;48.778;9.166;2024-03-22T12:20:57;25.73;;;8.70;;
2912;SDS011;1466;48.778;9.166;2024-03-22T12:23:23;38.57;;;11.17;;
2912;SDS011;1466;48.778;9.166;2024-03-22T12:25:49;18.33;;;8.03;;
2912;SDS011;1466;48.778;9.166;2024-03-22T12:28:16;20.93;;;8.43;;
2912;SDS011;1466;48.778;9.166;2024-03-22T12:30:42;18.93;;;8.80;;
2912;SDS011;1466;48.778;9.166;2024-03-22T12:33:08;28.67;;;10.30;;
2912;SDS011;1466;48.778;9.166;2024-03-22T12:35:35;17.70;;;7.70;;
2912;SDS011;1466;48.778;9.166;2024-03-22T12:38:04;23.60;;;8.60;;
2912;SDS011;1466;48.778;9.166;2024-03-22T12:40:30;36.37;;;10.57;;
2912;SDS011;1466;48.778;9.166;2024-03-22T12:42:57;33.07;;;9.60;;
2912;SDS011;1466;48.778;9.166;2024-03-22T12:45:23;23.80;;;9.23;;
2912;SDS011;1466;48.778;9.166;2024-03-22T12:47:51;19.17;;;7.90;;
2912;SDS011;1466;48.778;9.166;2024-03-22T12:50:17;29.17;;;9.00;;
2912;SDS011;1466;48.778;9.166;2024-03-22T12:52:43;20.57;;;8.17;;
2912;SDS011;1466;48.778;9.166;2024-03-22T12:55:09;18.23;;;7.80;;
2912;SDS011;1466;48.778;9.166;2024-03-22T12:57:35;20.40;;;8.20;;
2912;SDS011;1466;48.778;9.166;2024-03-22T13:00:01;18.73;;;8.13;;
2912;SDS011;1466;48.778;9.166;2024-03-22T13:02:29;22.00;;;8.60;;
2912;SDS011;1466;48.778;9.166;2024-03-22T13:04:57;13.97;;;7.23;;
2912;SDS011;1466;48.778;9.166;2024-03-22T13:07:23;17.60;;;8.07;;
2912;SDS011;1466;48.778;9.166;2024-03-22T13:09:48;24.60;;;8.43;;
2912;SDS011;1466;48.778;9.166;2024-03-22T13:12:15;27.23;;;8.33;;
2912;SDS011;1466;48.778;9.166;2024-03-22T13:14:41;22.33;;;8.73;;
2912;SDS011;1466;48.778;9.166;2024-03-22T13:17:12;20.07;;;8.30;;
2912;SDS011;1466;48.778;9.166;2024-03-22T13:19:38;14.83;;;7.10;;
2912;SDS011;1466;48.778;9.166;2024-03-22T13:22:03;26.77;;;9.67;;
2912;SDS011;1466;48.778;9.166;2024-03-22T13:24:29;21.23;;;8.07;;
2912;SDS011;1466;48.778;9.166;2024-03-22T13:27:05;26.20;;;9.00;;
2912;SDS011;1466;48.778;9.166;2024-03-22T13:29:31;30.53;;;9.27;;
2912;SDS011;1466;48.778;9.166;2024-03-22T13:32:00;28.77;;;8.87;;
2912;SDS011;1466;48.778;9.166;2024-03-22T13:34:26;20.30;;;7.80;;
2912;SDS011;1466;48.778;9.166;2024-03-22T13:36:51;20.80;;;8.80;;
2912;SDS011;1466;48.778;9.166;2024-03-22T13:39:17;24.30;;;9.20;;
2912;SDS011;1466;48.778;9.166;2024-03-22T13:41:42;19.37;;;8.00;;
2912;SDS011;1466;48.778;9.166;2024-03-22T13:44:08;20.07;;;7.73;;
2912;SDS011;1466;48.778;9.166;2024-03-22T13:46:34;21.60;;;8.90;;
2912;SDS011;1466;48.778;9.166;2024-03-22T13:49:13;21.40;;;8.37;;
2912;SDS011;1466;48.778;9.166;2024-03-22T13:51:43;23.17;;;8.40;;
2912;SDS011;1466;48.778;9.166;2024-03-22T13:54:09;18.30;;;7.90;;
2912;SDS011;1466;48.778;9.166;2024-03-22T13:56:36;19.20;;;7.60;;
2912;SDS011;1466;48.778;9.166;2024-03-22T13:59:03;22.00;;;8.67;;
2912;SDS011;1466;48.778;9.166;2024-03-22T14:01:30;26.33;;;8.93;;
2912;SDS011;1466;48.778;9.166;2024-03-22T14:04:06;16.83;;;7.50;;
2912;SDS011;1466;48.778;9.166;2024-03-22T14:06:32;21.73;;;8.93;;
2912;SDS011;1466;48.778;9.166;2024-03-22T14:08:58;28.50;;;10.33;;
2912;SDS011;1466;48.778;9.166;2024-03-22T14:11:28;26.13;;;9.47;;
2912;SDS011;1466;48.778;9.166;2024-03-22T14:13:55;23.37;;;8.70;;
2912;SDS011;1466;48.778;9.166;2024-03-22T14:16:21;22.10;;;9.17;;
2912;SDS011;1466;48.778;9.166;2024-03-22T14:18:47;25.63;;;9.27;;
2912;SDS011;1466;48.778;9.166;2024-03-22T14:21:14;23.40;;;9.90;;
2912;SDS011;1466;48.778;9.166;2024-03-22T14:23:53;19.10;;;8.27;;
2912;SDS011;1466;48.778;9.166;2024-03-22T14:26:18;18.03;;;8.90;;
2912;SDS011;1466;48.778;9.166;2024-03-22T14:28:46;28.00;;;10.50;;
2912;SDS011;1466;48.778;9.166;2024-03-22T14:31:12;19.40;;;8.67;;
2912;SDS011;1466;48.778;9.166;2024-03-22T14:33:39;29.20;;;10.13;;
2912;SDS011;1466;48.778;9.166;2024-03-22T14:36:05;23.80;;;9.00;;
2912;SDS011;1466;48.778;9.166;2024-03-22T14:38:36;22.17;;;9.00;;
2912;SDS011;1466;48.778;9.166;2024-03-22T14:41:02;22.50;;;8.83;;
2912;SDS011;1466;48.778;9.166;2024-03-22T14:43:28;22.03;;;8.50;;
2912;SDS011;1466;48.778;9.166;2024-03-22T14:45:56;22.43;;;8.50;;
2912;SDS011;1466;48.778;9.166;2024-03-22T14:48:21;18.50;;;7.40;;
2912;SDS011;1466;48.778;9.166;2024-03-22T14:50:48;22.07;;;8.30;;